sensor_id;sensor_type;location;lat;lon;timestamp;P1;durP1;ratioP1;P2;durP2;ratioP2
55254;SDS011;41118;44.634;11.182;2023-03-23T00:01:56;4.65;;;1.20;;
55254;SDS011;41118;44.634;11.182;2023-03-23T00:04:22;5.10;;;1.40;;
55254;SDS011;41118;44.634;11.182;2023-03-23T00:06:51;4.03;;;1.55;;
55254;SDS011;41118;44.634;11.182;2023-03-23T00:09:17;7.00;;;1.80;;
55254;SDS011;41118;44.634;11.182;2023-03-23T00:11:48;7.70;;;1.80;;
55254;SDS011;41118;44.634;11.182;2023-03-23T00:14:15;3.08;;;1.10;;
55254;SDS011;41118;44.634;11.182;2023-03-23T00:16:42;5.70;;;1.45;;
55254;SDS011;41118;44.634;11.182;2023-03-23T00:19:10;5.35;;;1.23;;
55254;SDS011;41118;44.634;11.182;2023-03-23T00:21:40;4.97;;;1.42;;
55254;SDS011;41118;44.634;11.182;2023-03-23T00:24:10;4.43;;;1.15;;
55254;SDS011;41118;44.634;11.182;2023-03-23T00:26:37;5.38;;;1.17;;
55254;SDS011;41118;44.634;11.182;2023-03-23T00:29:10;5.75;;;2.55;;
55254;SDS011;41118;44.634;11.182;2023-03-23T00:31:38;3.75;;;1.40;;
55254;SDS011;41118;44.634;11.182;2023-03-23T00:34:05;5.18;;;1.20;;
55254;SDS011;41118;44.634;11.182;2023-03-23T00:36:31;5.35;;;1.20;;
55254;SDS011;41118;44.634;11.182;2023-03-23T00:39:00;7.45;;;2.17;;
55254;SDS011;41118;44.634;11.182;2023-03-23T00:41:26;6.35;;;1.65;;
55254;SDS011;41118;44.634;11.182;2023-03-23T00:43:56;3.13;;;1.38;;
55254;SDS011;41118;44.634;11.182;2023-03-23T00:46:23;8.68;;;1.63;;
55254;SDS011;41118;44.634;11.182;2023-03-23T00:48:49;5.03;;;1.77;;
55254;SDS011;41118;44.634;11.182;2023-03-23T00:51:17;3.30;;;1.08;;
55254;SDS011;41118;44.634;11.182;2023-03-23T00:53:44;4.10;;;1.27;;
55254;SDS011;41118;44.634;11.182;2023-03-23T00:56:10;3.60;;;2.30;;
55254;SDS011;41118;44.634;11.182;2023-03-23T00:58:36;3.72;;;1.63;;
55254;SDS011;41118;44.634;11.182;2023-03-23T01:01:03;6.90;;;2.20;;
55254;SDS011;41118;44.634;11.182;2023-03-23T01:03:29;6.28;;;2.35;;
55254;SDS011;41118;44.634;11.182;2023-03-23T01:05:55;5.60;;;2.30;;
55254;SDS011;41118;44.634;11.182;2023-03-23T01:08:22;5.32;;;1.15;;
55254;SDS011;41118;44.634;11.182;2023-03-23T01:10:49;4.63;;;1.63;;
55254;SDS011;41118;44.634;11.182;2023-03-23T01:13:16;6.97;;;2.47;;
55254;SDS011;41118;44.634;11.182;2023-03-23T01:15:42;4.13;;;1.17;;
55254;SDS011;41118;44.634;11.182;2023-03-23T01:18:09;6.45;;;1.75;;
55254;SDS011;41118;44.634;11.182;2023-03-23T01:20:36;4.68;;;1.10;;
55254;SDS011;41118;44.634;11.182;2023-03-23T01:23:02;3.13;;;1.08;;
55254;SDS011;41118;44.634;11.182;2023-03-23T01:25:30;7.13;;;1.83;;
55254;SDS011;41118;44.634;11.182;2023-03-23T01:27:56;5.30;;;1.50;;
55254;SDS011;41118;44.634;11.182;2023-03-23T01:30:23;4.80;;;1.02;;
55254;SDS011;41118;44.634;11.182;2023-03-23T01:32:51;3.25;;;1.35;;
55254;SDS011;41118;44.634;11.182;2023-03-23T01:35:17;5.85;;;1.10;;
55254;SDS011;41118;44.634;11.182;2023-03-23T01:37:44;3.33;;;0.90;;
55254;SDS011;41118;44.634;11.182;2023-03-23T01:40:12;4.93;;;1.52;;
55254;SDS011;41118;44.634;11.182;2023-03-23T01:42:38;5.93;;;1.00;;
55254;SDS011;41118;44.634;11.182;2023-03-23T01:47:49;2.95;;;1.65;;
55254;SDS011;41118;44.634;11.182;2023-03-23T01:50:18;5.20;;;1.67;;
55254;SDS011;41118;44.634;11.182;2023-03-23T01:52:45;2.92;;;1.20;;
55254;SDS011;41118;44.634;11.182;2023-03-23T01:55:12;2.53;;;0.85;;
55254;SDS011;41118;44.634;11.182;2023-03-23T01:57:38;3.22;;;1.40;;
55254;SDS011;41118;44.634;11.182;2023-03-23T02:00:05;3.92;;;0.93;;
55254;SDS011;41118;44.634;11.182;2023-03-23T02:02:39;4.03;;;1.02;;
55254;SDS011;41118;44.634;11.182;2023-03-23T02:05:08;5.18;;;0.95;;
55254;SDS011;41118;44.634;11.182;2023-03-23T02:07:36;5.60;;;1.33;;
55254;SDS011;41118;44.634;11.182;2023-03-23T02:10:03;2.97;;;1.00;;
55254;SDS011;41118;44.634;11.182;2023-03-23T02:12:29;2.63;;;0.75;;
55254;SDS011;41118;44.634;11.182;2023-03-23T02:14:55;4.20;;;1.23;;
55254;SDS011;41118;44.634;11.182;2023-03-23T02:17:37;7.50;;;1.58;;
55254;SDS011;41118;44.634;11.182;2023-03-23T02:20:56;4.07;;;0.80;;
55254;SDS011;41118;44.634;11.182;2023-03-23T02:35:52;3.50;;;1.15;;
55254;SDS011;41118;44.634;11.182;2023-03-23T02:38:21;7.85;;;1.27;;
55254;SDS011;41118;44.634;11.182;2023-03-23T02:40:49;3.92;;;0.88;;
55254;SDS011;41118;44.634;11.182;2023-03-23T02:43:17;3.65;;;1.33;;
55254;SDS011;41118;44.634;11.182;2023-03-23T02:45:46;2.42;;;0.70;;
55254;SDS011;41118;44.634;11.182;2023-03-23T02:48:13;4.07;;;1.23;;
55254;SDS011;41118;44.634;11.182;2023-03-23T02:50:41;2.85;;;1.15;;
55254;SDS011;41118;44.634;11.182;2023-03-23T02:53:09;5.38;;;1.83;;
55254;SDS011;41118;44.634;11.182;2023-03-23T02:55:37;4.07;;;1.33;;
55254;SDS011;41118;44.634;11.182;2023-03-23T02:58:06;2.90;;;1.20;;
55254;SDS011;41118;44.634;11.182;2023-03-23T03:00:32;2.45;;;0.70;;
55254;SDS011;41118;44.634;11.182;2023-03-23T03:02:59;4.65;;;0.90;;
55254;SDS011;41118;44.634;11.182;2023-03-23T03:10:36;3.03;;;1.40;;
55254;SDS011;41118;44.634;11.182;2023-03-23T03:15:37;2.28;;;0.75;;
55254;SDS011;41118;44.634;11.182;2023-03-23T03:18:16;2.50;;;1.10;;
55254;SDS011;41118;44.634;11.182;2023-03-23T03:20:45;3.55;;;1.15;;
55254;SDS011;41118;44.634;11.182;2023-03-23T03:23:12;5.65;;;1.60;;
55254;SDS011;41118;44.634;11.182;2023-03-23T03:25:40;3.00;;;1.30;;
55254;SDS011;41118;44.634;11.182;2023-03-23T03:28:07;4.20;;;1.00;;
55254;SDS011;41118;44.634;11.182;2023-03-23T03:30:34;3.92;;;1.02;;
55254;SDS011;41118;44.634;11.182;2023-03-23T03:33:01;3.50;;;1.02;;
55254;SDS011;41118;44.634;11.182;2023-03-23T03:35:28;2.75;;;0.70;;
55254;SDS011;41118;44.634;11.182;2023-03-23T03:37:55;2.65;;;0.93;;
55254;SDS011;41118;44.634;11.182;2023-03-23T03:40:22;6.43;;;0.82;;
55254;SDS011;41118;44.634;11.182;2023-03-23T03:42:49;3.80;;;0.75;;
55254;SDS011;41118;44.634;11.182;2023-03-23T03:45:16;3.08;;;1.15;;
55254;SDS011;41118;44.634;11.182;2023-03-23T03:47:43;4.03;;;1.30;;
55254;SDS011;41118;44.634;11.182;2023-03-23T03:50:09;5.93;;;1.52;;
55254;SDS011;41118;44.634;11.182;2023-03-23T03:52:35;6.70;;;1.90;;
55254;SDS011;41118;44.634;11.182;2023-03-23T03:55:03;6.07;;;1.70;;
55254;SDS011;41118;44.634;11.182;2023-03-23T03:57:29;2.85;;;1.35;;
55254;SDS011;41118;44.634;11.182;2023-03-23T03:59:55;4.47;;;0.80;;
55254;SDS011;41118;44.634;11.182;2023-03-23T04:02:21;2.92;;;1.05;;
55254;SDS011;41118;44.634;11.182;2023-03-23T04:04:47;3.35;;;0.88;;
55254;SDS011;41118;44.634;11.182;2023-03-23T04:07:14;2.22;;;0.68;;
55254;SDS011;41118;44.634;11.182;2023-03-23T04:09:42;3.40;;;0.80;;
55254;SDS011;41118;44.634;11.182;2023-03-23T04:12:08;4.25;;;1.13;;
55254;SDS011;41118;44.634;11.182;2023-03-23T04:14:34;5.07;;;1.45;;
55254;SDS011;41118;44.634;11.182;2023-03-23T04:17:01;3.17;;;1.02;;
55254;SDS011;41118;44.634;11.182;2023-03-23T04:19:27;3.67;;;0.98;;
55254;SDS011;41118;44.634;11.182;2023-03-23T04:21:54;2.75;;;0.60;;
55254;SDS011;41118;44.634;11.182;2023-03-23T04:24:20;1.95;;;0.73;;
55254;SDS011;41118;44.634;11.182;2023-03-23T04:26:49;3.42;;;0.70;;
55254;SDS011;41118;44.634;11.182;2023-03-23T04:29:17;2.75;;;0.60;;
55254;SDS011;41118;44.634;11.182;2023-03-23T04:31:44;4.20;;;0.52;;
55254;SDS011;41118;44.634;11.182;2023-03-23T04:34:10;3.58;;;0.63;;
55254;SDS011;41118;44.634;11.182;2023-03-23T04:36:40;3.95;;;0.80;;
55254;SDS011;41118;44.634;11.182;2023-03-23T04:39:06;4.88;;;0.70;;
55254;SDS011;41118;44.634;11.182;2023-03-23T04:41:34;2.58;;;0.82;;
55254;SDS011;41118;44.634;11.182;2023-03-23T04:44:01;2.05;;;0.70;;
55254;SDS011;41118;44.634;11.182;2023-03-23T04:46:29;4.25;;;1.67;;
55254;SDS011;41118;44.634;11.182;2023-03-23T04:48:55;2.92;;;1.05;;
55254;SDS011;41118;44.634;11.182;2023-03-23T04:51:23;5.65;;;0.80;;
55254;SDS011;41118;44.634;11.182;2023-03-23T04:53:51;5.00;;;0.60;;
55254;SDS011;41118;44.634;11.182;2023-03-23T04:56:17;5.00;;;0.60;;
55254;SDS011;41118;44.634;11.182;2023-03-23T04:58:43;3.15;;;1.42;;
55254;SDS011;41118;44.634;11.182;2023-03-23T05:01:10;4.07;;;1.23;;
55254;SDS011;41118;44.634;11.182;2023-03-23T05:03:40;2.70;;;0.70;;
55254;SDS011;41118;44.634;11.182;2023-03-23T05:06:06;1.63;;;0.52;;
55254;SDS011;41118;44.634;11.182;2023-03-23T05:08:34;3.90;;;0.80;;
55254;SDS011;41118;44.634;11.182;2023-03-23T05:11:03;3.58;;;0.80;;
55254;SDS011;41118;44.634;11.182;2023-03-23T05:13:30;3.78;;;0.80;;
55254;SDS011;41118;44.634;11.182;2023-03-23T05:15:56;5.07;;;0.90;;
55254;SDS011;41118;44.634;11.182;2023-03-23T05:18:22;1.85;;;0.40;;
55254;SDS011;41118;44.634;11.182;2023-03-23T05:20:48;3.40;;;0.82;;
55254;SDS011;41118;44.634;11.182;2023-03-23T05:23:17;3.63;;;0.68;;
55254;SDS011;41118;44.634;11.182;2023-03-23T05:25:52;4.68;;;1.13;;
55254;SDS011;41118;44.634;11.182;2023-03-23T05:28:18;3.95;;;0.68;;
55254;SDS011;41118;44.634;11.182;2023-03-23T05:30:46;8.07;;;1.02;;
55254;SDS011;41118;44.634;11.182;2023-03-23T05:33:13;7.22;;;1.17;;
55254;SDS011;41118;44.634;11.182;2023-03-23T05:35:39;4.07;;;0.90;;
55254;SDS011;41118;44.634;11.182;2023-03-23T05:38:06;3.75;;;0.70;;
55254;SDS011;41118;44.634;11.182;2023-03-23T05:40:32;3.42;;;0.77;;
55254;SDS011;41118;44.634;11.182;2023-03-23T05:42:58;5.00;;;0.70;;
55254;SDS011;41118;44.634;11.182;2023-03-23T05:45:24;4.88;;;1.20;;
55254;SDS011;41118;44.634;11.182;2023-03-23T05:47:51;6.68;;;0.90;;
55254;SDS011;41118;44.634;11.182;2023-03-23T05:50:18;6.25;;;1.08;;
55254;SDS011;41118;44.634;11.182;2023-03-23T05:52:44;8.73;;;1.23;;
55254;SDS011;41118;44.634;11.182;2023-03-23T05:55:11;2.50;;;1.02;;
55254;SDS011;41118;44.634;11.182;2023-03-23T05:57:38;11.35;;;1.30;;
55254;SDS011;41118;44.634;11.182;2023-03-23T06:00:05;2.95;;;1.02;;
55254;SDS011;41118;44.634;11.182;2023-03-23T06:02:44;5.70;;;0.95;;
55254;SDS011;41118;44.634;11.182;2023-03-23T06:05:10;6.32;;;1.05;;
55254;SDS011;41118;44.634;11.182;2023-03-23T06:07:36;10.55;;;1.60;;
55254;SDS011;41118;44.634;11.182;2023-03-23T06:10:03;4.20;;;0.77;;
55254;SDS011;41118;44.634;11.182;2023-03-23T06:12:30;5.63;;;0.88;;
55254;SDS011;41118;44.634;11.182;2023-03-23T06:14:56;2.85;;;0.80;;
55254;SDS011;41118;44.634;11.182;2023-03-23T06:17:23;13.02;;;1.48;;
55254;SDS011;41118;44.634;11.182;2023-03-23T06:19:48;9.93;;;1.00;;
55254;SDS011;41118;44.634;11.182;2023-03-23T06:22:15;6.95;;;1.50;;
55254;SDS011;41118;44.634;11.182;2023-03-23T06:24:42;11.27;;;0.75;;
55254;SDS011;41118;44.634;11.182;2023-03-23T06:27:08;5.63;;;1.08;;
55254;SDS011;41118;44.634;11.182;2023-03-23T06:29:35;4.35;;;1.33;;
55254;SDS011;41118;44.634;11.182;2023-03-23T06:32:02;3.42;;;0.52;;
55254;SDS011;41118;44.634;11.182;2023-03-23T06:34:29;5.03;;;0.57;;
55254;SDS011;41118;44.634;11.182;2023-03-23T06:36:55;7.28;;;0.73;;
55254;SDS011;41118;44.634;11.182;2023-03-23T06:39:21;4.43;;;0.47;;
55254;SDS011;41118;44.634;11.182;2023-03-23T06:41:47;9.07;;;1.45;;
55254;SDS011;41118;44.634;11.182;2023-03-23T06:44:14;4.00;;;0.93;;
55254;SDS011;41118;44.634;11.182;2023-03-23T06:46:40;3.95;;;0.40;;
55254;SDS011;41118;44.634;11.182;2023-03-23T06:49:06;1.70;;;0.30;;
55254;SDS011;41118;44.634;11.182;2023-03-23T06:51:32;3.05;;;0.52;;
55254;SDS011;41118;44.634;11.182;2023-03-23T06:53:58;4.90;;;0.77;;
55254;SDS011;41118;44.634;11.182;2023-03-23T06:56:25;3.90;;;0.40;;
55254;SDS011;41118;44.634;11.182;2023-03-23T06:58:51;3.58;;;0.38;;
55254;SDS011;41118;44.634;11.182;2023-03-23T07:01:18;2.13;;;0.40;;
55254;SDS011;41118;44.634;11.182;2023-03-23T07:03:44;2.83;;;0.38;;
55254;SDS011;41118;44.634;11.182;2023-03-23T07:06:11;2.85;;;0.38;;
55254;SDS011;41118;44.634;11.182;2023-03-23T07:08:37;1.73;;;0.40;;
55254;SDS011;41118;44.634;11.182;2023-03-23T07:11:03;2.05;;;0.40;;
55254;SDS011;41118;44.634;11.182;2023-03-23T07:13:30;3.97;;;0.40;;
55254;SDS011;41118;44.634;11.182;2023-03-23T07:15:56;3.15;;;0.52;;
55254;SDS011;41118;44.634;11.182;2023-03-23T07:18:22;1.70;;;0.40;;
55254;SDS011;41118;44.634;11.182;2023-03-23T07:20:49;5.72;;;0.55;;
55254;SDS011;41118;44.634;11.182;2023-03-23T07:23:16;3.15;;;0.47;;
55254;SDS011;41118;44.634;11.182;2023-03-23T07:25:42;1.90;;;0.40;;
55254;SDS011;41118;44.634;11.182;2023-03-23T07:28:08;1.40;;;0.50;;
55254;SDS011;41118;44.634;11.182;2023-03-23T07:30:35;2.40;;;0.32;;
55254;SDS011;41118;44.634;11.182;2023-03-23T07:33:03;2.65;;;0.30;;
55254;SDS011;41118;44.634;11.182;2023-03-23T07:35:29;4.70;;;0.47;;
55254;SDS011;41118;44.634;11.182;2023-03-23T07:37:56;2.05;;;0.40;;
55254;SDS011;41118;44.634;11.182;2023-03-23T07:40:22;2.03;;;0.50;;
55254;SDS011;41118;44.634;11.182;2023-03-23T07:42:52;2.83;;;0.50;;
55254;SDS011;41118;44.634;11.182;2023-03-23T07:45:19;2.58;;;0.40;;
55254;SDS011;41118;44.634;11.182;2023-03-23T07:47:45;8.52;;;0.60;;
55254;SDS011;41118;44.634;11.182;2023-03-23T07:50:11;4.72;;;0.70;;
55254;SDS011;41118;44.634;11.182;2023-03-23T07:52:38;2.75;;;0.50;;
55254;SDS011;41118;44.634;11.182;2023-03-23T07:55:06;3.38;;;0.70;;
55254;SDS011;41118;44.634;11.182;2023-03-23T07:57:33;3.42;;;0.50;;
55254;SDS011;41118;44.634;11.182;2023-03-23T07:59:59;2.55;;;0.40;;
55254;SDS011;41118;44.634;11.182;2023-03-23T08:02:25;4.45;;;0.65;;
55254;SDS011;41118;44.634;11.182;2023-03-23T08:04:52;2.95;;;0.80;;
55254;SDS011;41118;44.634;11.182;2023-03-23T08:07:19;2.90;;;0.70;;
55254;SDS011;41118;44.634;11.182;2023-03-23T08:09:45;5.57;;;1.05;;
55254;SDS011;41118;44.634;11.182;2023-03-23T08:12:12;5.55;;;0.80;;
55254;SDS011;41118;44.634;11.182;2023-03-23T08:14:39;4.55;;;0.93;;
55254;SDS011;41118;44.634;11.182;2023-03-23T08:17:06;7.53;;;1.85;;
55254;SDS011;41118;44.634;11.182;2023-03-23T08:19:32;5.75;;;0.88;;
55254;SDS011;41118;44.634;11.182;2023-03-23T08:22:01;4.43;;;1.05;;
55254;SDS011;41118;44.634;11.182;2023-03-23T08:24:27;21.90;;;1.88;;
55254;SDS011;41118;44.634;11.182;2023-03-23T08:26:54;7.93;;;1.48;;
55254;SDS011;41118;44.634;11.182;2023-03-23T08:29:20;9.48;;;1.92;;
55254;SDS011;41118;44.634;11.182;2023-03-23T08:31:47;9.27;;;1.88;;
55254;SDS011;41118;44.634;11.182;2023-03-23T08:34:13;6.28;;;1.27;;
55254;SDS011;41118;44.634;11.182;2023-03-23T08:36:40;11.98;;;1.83;;
55254;SDS011;41118;44.634;11.182;2023-03-23T08:39:09;6.18;;;1.25;;
55254;SDS011;41118;44.634;11.182;2023-03-23T08:41:35;8.32;;;2.63;;
55254;SDS011;41118;44.634;11.182;2023-03-23T08:44:02;6.43;;;1.85;;
55254;SDS011;41118;44.634;11.182;2023-03-23T08:46:29;9.88;;;3.05;;
55254;SDS011;41118;44.634;11.182;2023-03-23T08:48:55;6.97;;;1.27;;
55254;SDS011;41118;44.634;11.182;2023-03-23T08:51:21;11.90;;;2.35;;
55254;SDS011;41118;44.634;11.182;2023-03-23T08:53:47;9.90;;;1.45;;
55254;SDS011;41118;44.634;11.182;2023-03-23T08:56:13;8.68;;;1.40;;
55254;SDS011;41118;44.634;11.182;2023-03-23T08:58:39;9.43;;;2.13;;
55254;SDS011;41118;44.634;11.182;2023-03-23T09:01:06;8.38;;;2.13;;
55254;SDS011;41118;44.634;11.182;2023-03-23T09:03:33;11.40;;;2.30;;
55254;SDS011;41118;44.634;11.182;2023-03-23T09:06:05;11.73;;;2.90;;
55254;SDS011;41118;44.634;11.182;2023-03-23T09:08:31;13.02;;;2.83;;
55254;SDS011;41118;44.634;11.182;2023-03-23T09:11:01;15.27;;;3.13;;
55254;SDS011;41118;44.634;11.182;2023-03-23T09:13:27;12.73;;;2.67;;
55254;SDS011;41118;44.634;11.182;2023-03-23T09:15:53;14.40;;;2.92;;
55254;SDS011;41118;44.634;11.182;2023-03-23T09:18:20;7.57;;;1.33;;
55254;SDS011;41118;44.634;11.182;2023-03-23T09:20:46;8.95;;;1.92;;
55254;SDS011;41118;44.634;11.182;2023-03-23T09:23:15;12.30;;;2.25;;
55254;SDS011;41118;44.634;11.182;2023-03-23T09:25:41;9.15;;;2.42;;
55254;SDS011;41118;44.634;11.182;2023-03-23T09:28:07;8.90;;;1.80;;
55254;SDS011;41118;44.634;11.182;2023-03-23T09:30:34;11.48;;;1.70;;
55254;SDS011;41118;44.634;11.182;2023-03-23T09:33:01;9.40;;;1.85;;
55254;SDS011;41118;44.634;11.182;2023-03-23T09:35:28;9.85;;;2.47;;
55254;SDS011;41118;44.634;11.182;2023-03-23T09:37:56;9.55;;;2.08;;
55254;SDS011;41118;44.634;11.182;2023-03-23T09:40:29;11.27;;;2.25;;
55254;SDS011;41118;44.634;11.182;2023-03-23T09:48:02;13.30;;;2.60;;
55254;SDS011;41118;44.634;11.182;2023-03-23T09:50:30;7.05;;;0.88;;
55254;SDS011;41118;44.634;11.182;2023-03-23T09:53:14;9.80;;;1.40;;
55254;SDS011;41118;44.634;11.182;2023-03-23T09:55:42;10.82;;;1.88;;
55254;SDS011;41118;44.634;11.182;2023-03-23T10:00:46;7.15;;;1.08;;
55254;SDS011;41118;44.634;11.182;2023-03-23T10:03:14;7.20;;;0.90;;
55254;SDS011;41118;44.634;11.182;2023-03-23T10:05:47;4.28;;;0.77;;
55254;SDS011;41118;44.634;11.182;2023-03-23T10:08:15;7.03;;;1.13;;
55254;SDS011;41118;44.634;11.182;2023-03-23T10:15:52;9.85;;;1.92;;
55254;SDS011;41118;44.634;11.182;2023-03-23T10:20:53;9.07;;;0.90;;
55254;SDS011;41118;44.634;11.182;2023-03-23T10:24:03;12.68;;;1.60;;
55254;SDS011;41118;44.634;11.182;2023-03-23T10:31:28;7.20;;;1.35;;
55254;SDS011;41118;44.634;11.182;2023-03-23T10:33:57;8.60;;;2.03;;
55254;SDS011;41118;44.634;11.182;2023-03-23T10:39:12;6.63;;;0.88;;
55254;SDS011;41118;44.634;11.182;2023-03-23T10:41:39;9.70;;;1.13;;
55254;SDS011;41118;44.634;11.182;2023-03-23T10:44:38;8.82;;;0.95;;
55254;SDS011;41118;44.634;11.182;2023-03-23T10:49:32;13.25;;;2.28;;
55254;SDS011;41118;44.634;11.182;2023-03-23T10:52:24;11.57;;;2.55;;
55254;SDS011;41118;44.634;11.182;2023-03-23T10:54:54;9.45;;;1.30;;
55254;SDS011;41118;44.634;11.182;2023-03-23T10:57:25;2.80;;;0.43;;
55254;SDS011;41118;44.634;11.182;2023-03-23T11:02:26;3.05;;;0.63;;
55254;SDS011;41118;44.634;11.182;2023-03-23T11:04:54;5.78;;;0.60;;
55254;SDS011;41118;44.634;11.182;2023-03-23T11:07:24;6.97;;;0.57;;
55254;SDS011;41118;44.634;11.182;2023-03-23T11:09:52;4.43;;;0.63;;
55254;SDS011;41118;44.634;11.182;2023-03-23T11:12:19;7.25;;;0.80;;
55254;SDS011;41118;44.634;11.182;2023-03-23T11:14:46;6.38;;;0.80;;
55254;SDS011;41118;44.634;11.182;2023-03-23T11:17:22;4.88;;;0.80;;
55254;SDS011;41118;44.634;11.182;2023-03-23T11:19:49;7.72;;;1.08;;
55254;SDS011;41118;44.634;11.182;2023-03-23T11:22:29;6.93;;;1.38;;
55254;SDS011;41118;44.634;11.182;2023-03-23T11:24:55;12.95;;;0.85;;
55254;SDS011;41118;44.634;11.182;2023-03-23T11:27:23;8.75;;;1.23;;
55254;SDS011;41118;44.634;11.182;2023-03-23T11:30:00;8.43;;;1.63;;
55254;SDS011;41118;44.634;11.182;2023-03-23T11:32:28;4.88;;;1.35;;
55254;SDS011;41118;44.634;11.182;2023-03-23T11:34:59;8.07;;;1.50;;
55254;SDS011;41118;44.634;11.182;2023-03-23T11:37:32;9.77;;;1.50;;
55254;SDS011;41118;44.634;11.182;2023-03-23T11:42:26;14.05;;;2.17;;
55254;SDS011;41118;44.634;11.182;2023-03-23T11:44:54;9.20;;;1.25;;
55254;SDS011;41118;44.634;11.182;2023-03-23T11:47:37;10.48;;;4.72;;
55254;SDS011;41118;44.634;11.182;2023-03-23T11:50:18;10.82;;;2.75;;
55254;SDS011;41118;44.634;11.182;2023-03-23T11:55:31;13.77;;;2.55;;
55254;SDS011;41118;44.634;11.182;2023-03-23T11:58:00;11.25;;;2.95;;
55254;SDS011;41118;44.634;11.182;2023-03-23T12:00:26;11.82;;;3.58;;
55254;SDS011;41118;44.634;11.182;2023-03-23T12:08:21;13.00;;;3.65;;
55254;SDS011;41118;44.634;11.182;2023-03-23T12:11:08;17.45;;;3.05;;
55254;SDS011;41118;44.634;11.182;2023-03-23T12:14:25;12.23;;;1.52;;
55254;SDS011;41118;44.634;11.182;2023-03-23T12:16:35;7.93;;;2.45;;
55254;SDS011;41118;44.634;11.182;2023-03-23T12:24:12;11.63;;;3.00;;
55254;SDS011;41118;44.634;11.182;2023-03-23T12:26:49;13.93;;;3.05;;
55254;SDS011;41118;44.634;11.182;2023-03-23T12:36:57;13.18;;;4.25;;
55254;SDS011;41118;44.634;11.182;2023-03-23T12:44:39;9.27;;;2.13;;
55254;SDS011;41118;44.634;11.182;2023-03-23T12:49:42;17.00;;;5.30;;
55254;SDS011;41118;44.634;11.182;2023-03-23T12:57:16;13.43;;;3.80;;
55254;SDS011;41118;44.634;11.182;2023-03-23T13:02:33;11.73;;;3.15;;
55254;SDS011;41118;44.634;11.182;2023-03-23T13:05:04;13.73;;;3.17;;
55254;SDS011;41118;44.634;11.182;2023-03-23T13:07:34;19.25;;;4.82;;
55254;SDS011;41118;44.634;11.182;2023-03-23T13:10:02;15.57;;;2.75;;
55254;SDS011;41118;44.634;11.182;2023-03-23T13:12:29;10.80;;;2.83;;
55254;SDS011;41118;44.634;11.182;2023-03-23T13:14:59;13.23;;;2.67;;
55254;SDS011;41118;44.634;11.182;2023-03-23T13:17:34;11.20;;;2.47;;
55254;SDS011;41118;44.634;11.182;2023-03-23T13:25:15;7.65;;;2.22;;
55254;SDS011;41118;44.634;11.182;2023-03-23T13:27:43;12.15;;;3.80;;
55254;SDS011;41118;44.634;11.182;2023-03-23T13:30:20;7.63;;;1.35;;
55254;SDS011;41118;44.634;11.182;2023-03-23T13:32:47;7.30;;;2.00;;
55254;SDS011;41118;44.634;11.182;2023-03-23T13:35:14;10.70;;;2.05;;
55254;SDS011;41118;44.634;11.182;2023-03-23T13:37:46;7.22;;;1.63;;
55254;SDS011;41118;44.634;11.182;2023-03-23T13:42:47;12.18;;;2.30;;
55254;SDS011;41118;44.634;11.182;2023-03-23T13:47:43;9.75;;;1.23;;
55254;SDS011;41118;44.634;11.182;2023-03-23T13:50:23;8.23;;;2.13;;
55254;SDS011;41118;44.634;11.182;2023-03-23T13:52:54;11.48;;;1.83;;
55254;SDS011;41118;44.634;11.182;2023-03-23T14:05:35;12.73;;;3.05;;
55254;SDS011;41118;44.634;11.182;2023-03-23T14:10:35;12.18;;;2.88;;
55254;SDS011;41118;44.634;11.182;2023-03-23T14:13:02;17.17;;;3.13;;
55254;SDS011;41118;44.634;11.182;2023-03-23T14:15:29;15.10;;;2.22;;
55254;SDS011;41118;44.634;11.182;2023-03-23T14:17:55;10.00;;;2.42;;
55254;SDS011;41118;44.634;11.182;2023-03-23T14:20:26;7.82;;;2.03;;
55254;SDS011;41118;44.634;11.182;2023-03-23T14:22:57;15.32;;;2.95;;
55254;SDS011;41118;44.634;11.182;2023-03-23T14:25:26;15.70;;;6.45;;
55254;SDS011;41118;44.634;11.182;2023-03-23T14:27:53;16.85;;;4.22;;
55254;SDS011;41118;44.634;11.182;2023-03-23T14:30:20;20.08;;;3.85;;
55254;SDS011;41118;44.634;11.182;2023-03-23T14:32:47;17.77;;;4.25;;
55254;SDS011;41118;44.634;11.182;2023-03-23T14:35:25;11.80;;;3.15;;
55254;SDS011;41118;44.634;11.182;2023-03-23T14:37:52;15.90;;;3.47;;
55254;SDS011;41118;44.634;11.182;2023-03-23T14:40:18;12.65;;;4.18;;
55254;SDS011;41118;44.634;11.182;2023-03-23T14:42:44;10.40;;;2.80;;
55254;SDS011;41118;44.634;11.182;2023-03-23T14:45:12;16.17;;;3.85;;
55254;SDS011;41118;44.634;11.182;2023-03-23T14:47:40;14.07;;;3.97;;
55254;SDS011;41118;44.634;11.182;2023-03-23T14:50:21;15.80;;;4.00;;
55254;SDS011;41118;44.634;11.182;2023-03-23T14:52:48;13.18;;;4.32;;
55254;SDS011;41118;44.634;11.182;2023-03-23T14:55:19;12.50;;;4.25;;
55254;SDS011;41118;44.634;11.182;2023-03-23T14:57:46;12.05;;;4.13;;
55254;SDS011;41118;44.634;11.182;2023-03-23T15:00:34;10.63;;;3.55;;
55254;SDS011;41118;44.634;11.182;2023-03-23T15:02:59;17.60;;;3.75;;
55254;SDS011;41118;44.634;11.182;2023-03-23T15:05:36;16.88;;;4.00;;
55254;SDS011;41118;44.634;11.182;2023-03-23T15:08:08;12.32;;;3.05;;
55254;SDS011;41118;44.634;11.182;2023-03-23T15:10:37;10.15;;;2.95;;
55254;SDS011;41118;44.634;11.182;2023-03-23T15:13:03;12.32;;;3.70;;
55254;SDS011;41118;44.634;11.182;2023-03-23T15:15:30;12.10;;;2.65;;
55254;SDS011;41118;44.634;11.182;2023-03-23T15:17:57;8.30;;;2.28;;
55254;SDS011;41118;44.634;11.182;2023-03-23T15:20:28;17.02;;;3.25;;
55254;SDS011;41118;44.634;11.182;2023-03-23T15:22:54;12.85;;;3.80;;
55254;SDS011;41118;44.634;11.182;2023-03-23T15:27:56;15.63;;;3.83;;
55254;SDS011;41118;44.634;11.182;2023-03-23T15:32:51;15.77;;;4.07;;
55254;SDS011;41118;44.634;11.182;2023-03-23T15:35:19;15.77;;;4.35;;
55254;SDS011;41118;44.634;11.182;2023-03-23T15:37:48;13.45;;;2.90;;
55254;SDS011;41118;44.634;11.182;2023-03-23T15:40:16;10.30;;;3.72;;
55254;SDS011;41118;44.634;11.182;2023-03-23T15:42:42;10.70;;;2.75;;
55254;SDS011;41118;44.634;11.182;2023-03-23T15:52:39;23.30;;;4.93;;
55254;SDS011;41118;44.634;11.182;2023-03-23T15:55:22;16.55;;;3.83;;
55254;SDS011;41118;44.634;11.182;2023-03-23T15:57:49;16.52;;;5.20;;
55254;SDS011;41118;44.634;11.182;2023-03-23T16:00:15;16.20;;;4.03;;
55254;SDS011;41118;44.634;11.182;2023-03-23T16:02:42;12.80;;;3.63;;
55254;SDS011;41118;44.634;11.182;2023-03-23T16:05:09;17.25;;;4.00;;
55254;SDS011;41118;44.634;11.182;2023-03-23T16:07:35;15.25;;;3.58;;
55254;SDS011;41118;44.634;11.182;2023-03-23T16:10:02;10.73;;;1.83;;
55254;SDS011;41118;44.634;11.182;2023-03-23T16:12:28;13.52;;;1.73;;
55254;SDS011;41118;44.634;11.182;2023-03-23T16:14:54;14.20;;;3.25;;
55254;SDS011;41118;44.634;11.182;2023-03-23T16:17:21;20.05;;;3.53;;
55254;SDS011;41118;44.634;11.182;2023-03-23T16:19:47;18.73;;;4.25;;
55254;SDS011;41118;44.634;11.182;2023-03-23T16:22:14;16.00;;;4.05;;
55254;SDS011;41118;44.634;11.182;2023-03-23T16:24:40;12.18;;;2.80;;
55254;SDS011;41118;44.634;11.182;2023-03-23T16:27:08;18.33;;;3.60;;
55254;SDS011;41118;44.634;11.182;2023-03-23T16:29:34;16.00;;;3.70;;
55254;SDS011;41118;44.634;11.182;2023-03-23T16:32:00;14.95;;;3.42;;
55254;SDS011;41118;44.634;11.182;2023-03-23T16:34:26;14.23;;;3.45;;
55254;SDS011;41118;44.634;11.182;2023-03-23T16:36:54;18.23;;;3.42;;
55254;SDS011;41118;44.634;11.182;2023-03-23T16:39:20;16.95;;;3.72;;
55254;SDS011;41118;44.634;11.182;2023-03-23T16:41:47;15.45;;;3.33;;
55254;SDS011;41118;44.634;11.182;2023-03-23T16:44:13;16.13;;;4.10;;